Time;durP1;ratioP1;P1;durP2;ratioP2;P2;SDS_P1;SDS_P2;PMS_P1;PMS_P2;Temp;Humidity;BMP_temperature;BMP_pressure;BME280_temperature;BME280_humidity;BME280_pressure;Samples;Min_cycle;Max_cycle;Signal;HPM_P1;HPM_P2
2023/10/30 00:00:10;;;;;;;1.80;1.20;;;12.80;1.00;;;;;;5141835;27;21005;-74
2023/10/30 00:02:39;;;;;;;2.03;1.30;;;12.80;1.00;;;;;;5136743;27;20552;-72
2023/10/30 00:05:07;;;;;;;1.90;1.10;;;12.80;1.00;;;;;;5141572;27;20544;-72
2023/10/30 00:07:34;;;;;;;1.90;1.10;;;12.80;1.00;;;;;;5129852;27;20411;-73
2023/10/30 00:10:02;;;;;;;1.33;0.93;;;12.80;1.00;;;;;;5151322;27;20526;-73
2023/10/30 00:12:29;;;;;;;1.30;1.10;;;12.90;1.00;;;;;;5152827;27;20451;-72
2023/10/30 00:14:56;;;;;;;3.60;0.90;;;12.90;1.00;;;;;;5144249;27;20478;-72
2023/10/30 00:17:23;;;;;;;1.37;1.00;;;12.90;1.00;;;;;;5155073;27;20979;-73
2023/10/30 00:19:51;;;;;;;2.00;1.20;;;12.90;1.00;;;;;;5152516;27;20573;-71
2023/10/30 00:22:18;;;;;;;1.30;0.90;;;13.00;1.00;;;;;;5155220;27;20948;-71
2023/10/30 00:24:45;;;;;;;1.90;1.00;;;13.00;1.00;;;;;;5155961;27;21104;-71
2023/10/30 00:27:12;;;;;;;2.17;1.00;;;13.00;1.00;;;;;;5148177;27;20456;-71
2023/10/30 00:29:40;;;;;;;4.60;1.27;;;13.00;1.00;;;;;;5132962;27;21035;-72
2023/10/30 00:32:07;;;;;;;1.67;0.87;;;13.10;1.00;;;;;;5130479;27;20429;-73
2023/10/30 00:34:34;;;;;;;1.93;1.17;;;13.00;1.00;;;;;;5129957;27;20477;-73
2023/10/30 00:37:03;;;;;;;1.30;0.90;;;13.00;1.00;;;;;;5135511;27;20536;-74
2023/10/30 00:39:32;;;;;;;1.40;1.00;;;13.00;1.00;;;;;;5153467;27;20526;-73
2023/10/30 00:42:00;;;;;;;1.60;1.23;;;13.10;1.00;;;;;;5129616;27;20992;-72
2023/10/30 00:44:27;;;;;;;2.03;0.80;;;13.10;1.00;;;;;;5136818;27;20543;-71
2023/10/30 00:46:56;;;;;;;1.40;0.90;;;13.00;1.00;;;;;;5142245;27;20447;-73
2023/10/30 00:49:23;;;;;;;1.87;1.10;;;13.00;1.00;;;;;;5129683;27;20524;-72
2023/10/30 00:51:50;;;;;;;1.30;0.77;;;13.00;1.00;;;;;;5138546;27;20454;-72
2023/10/30 00:54:18;;;;;;;1.20;0.90;;;13.00;1.00;;;;;;5154108;27;20453;-72
2023/10/30 00:56:45;;;;;;;3.80;1.30;;;13.00;1.00;;;;;;5139595;27;20470;-72
2023/10/30 00:59:12;;;;;;;1.20;0.93;;;13.00;1.00;;;;;;5137885;27;20469;-72
2023/10/30 01:01:39;;;;;;;2.63;1.20;;;13.00;1.00;;;;;;5144745;27;20453;-72
2023/10/30 01:04:07;;;;;;;2.40;1.10;;;13.00;1.00;;;;;;5131466;27;20554;-75
2023/10/30 01:06:34;;;;;;;2.20;1.27;;;13.00;1.00;;;;;;5131793;27;20490;-71
2023/10/30 01:09:01;;;;;;;5.50;0.90;;;13.00;1.00;;;;;;5137156;27;20563;-72
2023/10/30 01:11:29;;;;;;;1.90;1.10;;;13.00;1.00;;;;;;5144017;27;20485;-70
2023/10/30 01:13:56;;;;;;;1.60;0.90;;;13.00;1.00;;;;;;5130258;27;20605;-70
2023/10/30 01:16:23;;;;;;;6.50;1.43;;;13.00;1.00;;;;;;5129562;27;21264;-68
2023/10/30 01:18:50;;;;;;;1.47;0.97;;;13.00;1.00;;;;;;5128510;27;21759;-70
2023/10/30 01:21:17;;;;;;;2.80;0.90;;;13.00;1.00;;;;;;5129173;27;20485;-69
2023/10/30 01:23:44;;;;;;;1.90;1.10;;;13.00;1.00;;;;;;5136814;27;20454;-69
2023/10/30 01:26:11;;;;;;;2.20;1.07;;;13.00;1.00;;;;;;5131216;27;20481;-70
2023/10/30 01:28:39;;;;;;;1.00;0.90;;;13.00;1.00;;;;;;5131117;27;20476;-68
2023/10/30 01:31:06;;;;;;;1.13;0.87;;;13.00;1.00;;;;;;5144773;27;20462;-69
2023/10/30 01:33:33;;;;;;;1.73;1.07;;;13.00;1.00;;;;;;5124252;27;20549;-69
2023/10/30 01:36:00;;;;;;;5.03;1.73;;;13.10;1.00;;;;;;5127997;27;21014;-69
2023/10/30 01:38:27;;;;;;;0.97;0.87;;;13.00;1.00;;;;;;5143906;27;20453;-68
2023/10/30 01:40:54;;;;;;;1.10;0.70;;;13.00;1.00;;;;;;5132093;27;20445;-71
2023/10/30 01:43:29;;;;;;;4.60;0.90;;;13.00;1.00;;;;;;5144902;27;20543;-69
2023/10/30 01:45:58;;;;;;;2.70;0.73;;;13.10;1.00;;;;;;5147906;27;20946;-69
2023/10/30 01:48:25;;;;;;;2.00;1.17;;;13.00;1.00;;;;;;5148310;27;20542;-70
2023/10/30 01:50:53;;;;;;;1.67;1.17;;;13.10;1.00;;;;;;5153044;27;20492;-72
2023/10/30 01:53:21;;;;;;;2.00;1.03;;;13.10;1.00;;;;;;5150654;27;20453;-70
2023/10/30 01:55:50;;;;;;;3.23;0.93;;;13.10;1.00;;;;;;5138006;27;20470;-69
2023/10/30 01:58:18;;;;;;;1.83;0.80;;;13.10;1.00;;;;;;5133879;27;20506;-73
2023/10/30 02:00:46;;;;;;;1.33;1.00;;;13.10;1.00;;;;;;5150847;27;20526;-69
2023/10/30 02:03:14;;;;;;;1.60;1.20;;;13.10;1.00;;;;;;5129644;27;20548;-70
2023/10/30 02:05:41;;;;;;;1.90;1.00;;;13.10;1.00;;;;;;5129379;27;20531;-71
2023/10/30 02:08:09;;;;;;;1.70;0.83;;;13.10;1.00;;;;;;5129233;27;20477;-69
2023/10/30 02:10:36;;;;;;;0.90;0.77;;;13.10;1.00;;;;;;5130484;27;21488;-73
2023/10/30 02:13:05;;;;;;;2.70;0.70;;;13.10;1.00;;;;;;5138911;27;20477;-70
2023/10/30 02:15:33;;;;;;;1.67;0.73;;;13.10;1.00;;;;;;5131074;27;20458;-68
2023/10/30 02:18:00;;;;;;;2.53;1.50;;;13.00;1.00;;;;;;5135758;27;20981;-69
2023/10/30 02:20:28;;;;;;;1.53;0.60;;;13.00;1.00;;;;;;5128855;27;20449;-72
2023/10/30 02:22:55;;;;;;;1.43;0.70;;;13.00;1.00;;;;;;5129726;27;20541;-76
2023/10/30 02:25:25;;;;;;;1.50;0.90;;;13.10;1.00;;;;;;5129632;27;20550;-70
2023/10/30 02:27:52;;;;;;;1.40;0.77;;;13.00;1.00;;;;;;5142326;27;20553;-71
2023/10/30 02:30:20;;;;;;;2.13;0.80;;;13.00;1.00;;;;;;5143450;27;21481;-72
2023/10/30 02:32:47;;;;;;;1.47;1.10;;;13.00;1.00;;;;;;5147284;27;20470;-73
2023/10/30 02:35:15;;;;;;;2.00;0.90;;;13.00;1.00;;;;;;5129643;27;20462;-71
2023/10/30 02:37:43;;;;;;;1.70;1.27;;;13.00;1.00;;;;;;5127663;27;20473;-71
2023/10/30 02:40:10;;;;;;;2.60;1.03;;;13.00;1.00;;;;;;5144650;27;20909;-72
2023/10/30 02:42:39;;;;;;;2.10;1.00;;;13.10;1.00;;;;;;5151152;27;21633;-72
2023/10/30 02:45:07;;;;;;;1.60;0.73;;;13.00;1.00;;;;;;5152379;27;20548;-72
2023/10/30 02:47:35;;;;;;;2.00;1.00;;;13.00;1.00;;;;;;5150674;27;20548;-75
2023/10/30 02:50:02;;;;;;;2.50;0.70;;;13.10;1.00;;;;;;5128327;27;21619;-71
2023/10/30 02:52:30;;;;;;;2.77;1.10;;;13.10;1.00;;;;;;5145088;27;20457;-71
2023/10/30 02:54:57;;;;;;;2.00;1.10;;;13.10;1.00;;;;;;5136015;27;20450;-71
2023/10/30 02:57:24;;;;;;;1.63;1.37;;;13.10;1.00;;;;;;5131799;27;20496;-71
2023/10/30 02:59:52;;;;;;;1.37;0.80;;;13.10;1.00;;;;;;5127578;27;20462;-71
2023/10/30 03:02:19;;;;;;;2.10;0.77;;;13.00;1.00;;;;;;5128594;27;20550;-73
2023/10/30 03:04:46;;;;;;;2.70;0.93;;;13.00;1.00;;;;;;5127288;27;20478;-71
2023/10/30 03:07:15;;;;;;;2.23;1.23;;;13.00;1.00;;;;;;5129902;27;20574;-71
2023/10/30 03:09:42;;;;;;;3.70;1.20;;;13.00;1.00;;;;;;5129763;27;20481;-72
2023/10/30 03:12:09;;;;;;;3.77;1.10;;;13.00;1.00;;;;;;5128475;27;20561;-72
2023/10/30 03:14:36;;;;;;;0.90;0.73;;;13.10;1.00;;;;;;5150680;27;20457;-73
2023/10/30 03:17:05;;;;;;;2.50;1.07;;;13.10;1.00;;;;;;5152625;27;20522;-72
2023/10/30 03:19:32;;;;;;;1.53;0.90;;;13.10;1.00;;;;;;5147820;27;20993;-71
2023/10/30 03:21:59;;;;;;;2.73;1.07;;;13.00;1.00;;;;;;5131549;27;20467;-70
2023/10/30 03:24:26;;;;;;;2.53;1.27;;;13.10;1.00;;;;;;5130839;27;20464;-73
2023/10/30 03:26:53;;;;;;;2.10;1.03;;;13.10;1.00;;;;;;5126768;27;20466;-72
2023/10/30 03:29:20;;;;;;;1.60;0.90;;;13.00;1.00;;;;;;5127643;27;20513;-71
2023/10/30 03:31:47;;;;;;;2.20;1.10;;;13.10;1.00;;;;;;5128049;27;20509;-72
2023/10/30 03:34:18;;;;;;;3.17;1.17;;;13.10;1.00;;;;;;5126762;27;21616;-72
2023/10/30 03:36:45;;;;;;;2.60;1.33;;;13.10;1.00;;;;;;5128390;27;20475;-71
2023/10/30 03:39:12;;;;;;;1.37;1.03;;;13.10;1.00;;;;;;5129054;27;20483;-71
2023/10/30 03:41:39;;;;;;;3.23;1.07;;;13.10;1.00;;;;;;5144999;27;20516;-70
2023/10/30 03:44:08;;;;;;;2.77;0.87;;;13.10;1.00;;;;;;5133175;27;20547;-71
2023/10/30 03:46:35;;;;;;;2.13;1.00;;;13.10;1.00;;;;;;5127671;27;20521;-72
2023/10/30 03:49:02;;;;;;;2.30;1.10;;;13.10;1.00;;;;;;5129140;27;20528;-70
2023/10/30 03:51:31;;;;;;;2.10;1.00;;;13.00;1.00;;;;;;5128719;27;20486;-71
2023/10/30 03:53:58;;;;;;;2.47;1.07;;;13.00;1.00;;;;;;5135714;27;20541;-72
2023/10/30 03:56:24;;;;;;;2.80;1.60;;;13.00;1.00;;;;;;5127058;27;21918;-72
2023/10/30 03:58:51;;;;;;;4.43;1.20;;;13.00;1.00;;;;;;5129499;27;20546;-71
2023/10/30 04:01:18;;;;;;;1.50;1.07;;;13.00;1.00;;;;;;5129158;27;20569;-71
2023/10/30 04:03:45;;;;;;;1.20;0.80;;;13.00;1.00;;;;;;5128131;27;20461;-72
2023/10/30 04:06:12;;;;;;;1.33;0.80;;;12.90;1.00;;;;;;5124482;27;20505;-77
2023/10/30 04:08:40;;;;;;;1.70;0.97;;;13.00;1.00;;;;;;5127777;27;20572;-72
2023/10/30 04:11:11;;;;;;;3.23;1.20;;;12.90;1.00;;;;;;5130335;27;20985;-71
2023/10/30 04:13:38;;;;;;;2.00;0.80;;;12.90;1.00;;;;;;5124283;27;20974;-71
2023/10/30 04:16:05;;;;;;;2.87;1.70;;;12.90;1.00;;;;;;5128089;27;20462;-72
2023/10/30 04:18:32;;;;;;;2.17;1.20;;;13.00;1.00;;;;;;5127682;27;20534;-71
2023/10/30 04:20:59;;;;;;;3.67;1.50;;;13.00;1.00;;;;;;5126960;27;20463;-71
2023/10/30 04:23:26;;;;;;;2.13;1.00;;;13.00;1.00;;;;;;5127594;27;20551;-70
2023/10/30 04:25:54;;;;;;;2.90;1.80;;;13.00;1.00;;;;;;5128402;27;20471;-72
2023/10/30 04:28:21;;;;;;;2.17;1.20;;;13.10;1.00;;;;;;5127903;27;20537;-71
2023/10/30 04:30:48;;;;;;;3.50;1.10;;;13.00;1.00;;;;;;5127619;27;21331;-71
2023/10/30 04:33:15;;;;;;;2.23;1.10;;;13.00;1.00;;;;;;5127475;27;20450;-72
2023/10/30 04:35:42;;;;;;;4.57;1.63;;;13.00;1.00;;;;;;5128213;27;20463;-72
2023/10/30 04:38:09;;;;;;;1.53;1.27;;;13.00;1.00;;;;;;5126202;27;20483;-72
2023/10/30 04:40:36;;;;;;;3.30;1.50;;;13.00;1.00;;;;;;5128958;27;20449;-72
2023/10/30 04:43:04;;;;;;;1.93;1.00;;;13.00;1.00;;;;;;5131296;27;21047;-72
2023/10/30 04:45:31;;;;;;;4.43;1.50;;;12.90;1.00;;;;;;5125705;27;20554;-72
2023/10/30 04:47:58;;;;;;;3.87;1.40;;;12.90;1.00;;;;;;5129252;27;21200;-70
2023/10/30 04:50:25;;;;;;;2.97;1.70;;;12.90;1.00;;;;;;5129920;27;20553;-71
2023/10/30 04:52:52;;;;;;;4.30;1.53;;;12.90;1.00;;;;;;5134101;27;20543;-71
2023/10/30 04:55:19;;;;;;;1.63;1.07;;;12.90;1.00;;;;;;5131286;27;20523;-72
2023/10/30 04:57:46;;;;;;;1.63;1.13;;;12.90;1.00;;;;;;5133300;27;20514;-72
2023/10/30 05:00:15;;;;;;;2.10;1.10;;;12.90;1.00;;;;;;5130692;27;20511;-71
2023/10/30 05:02:46;;;;;;;2.30;1.40;;;12.90;1.00;;;;;;5126244;27;21137;-71
2023/10/30 05:05:13;;;;;;;1.77;1.20;;;13.00;1.00;;;;;;5123507;27;20477;-72
2023/10/30 05:07:40;;;;;;;1.77;1.17;;;12.90;1.00;;;;;;5129249;27;20442;-72
2023/10/30 05:10:07;;;;;;;3.20;1.50;;;12.90;1.00;;;;;;5130447;27;20521;-72
2023/10/30 05:12:34;;;;;;;1.40;1.30;;;12.80;1.00;;;;;;5129748;27;20460;-71
2023/10/30 05:15:01;;;;;;;2.13;1.00;;;12.80;1.00;;;;;;5131591;27;20555;-71
2023/10/30 05:17:29;;;;;;;2.70;1.33;;;12.80;1.00;;;;;;5131550;27;20539;-71
2023/10/30 05:19:59;;;;;;;3.30;1.10;;;12.80;1.00;;;;;;5126179;27;21030;-73
2023/10/30 05:22:27;;;;;;;1.83;1.10;;;12.80;1.00;;;;;;5129915;27;20448;-71
2023/10/30 05:24:54;;;;;;;2.23;1.57;;;12.80;1.00;;;;;;5129897;27;20506;-72
2023/10/30 05:27:21;;;;;;;5.33;1.70;;;12.80;1.00;;;;;;5129547;27;20596;-72
2023/10/30 05:29:48;;;;;;;2.40;1.40;;;12.80;1.00;;;;;;5128110;27;20483;-72
2023/10/30 05:32:15;;;;;;;5.60;2.90;;;12.90;1.00;;;;;;5132426;27;20458;-71
2023/10/30 05:34:43;;;;;;;3.30;1.53;;;12.80;1.00;;;;;;5128495;27;20474;-73
2023/10/30 05:37:12;;;;;;;3.47;1.60;;;12.80;1.00;;;;;;5123739;27;20462;-72
2023/10/30 05:39:39;;;;;;;4.57;1.60;;;12.80;1.00;;;;;;5131601;27;20543;-72
2023/10/30 05:42:06;;;;;;;2.87;1.47;;;12.90;1.00;;;;;;5127681;27;20512;-71
2023/10/30 05:44:33;;;;;;;2.83;1.50;;;12.90;1.00;;;;;;5130788;27;20566;-72
2023/10/30 05:47:00;;;;;;;1.70;1.30;;;12.90;1.00;;;;;;5129076;27;20526;-72
2023/10/30 05:49:27;;;;;;;2.17;1.20;;;12.90;1.00;;;;;;5128119;27;20601;-71
2023/10/30 05:51:57;;;;;;;2.60;1.67;;;12.90;1.00;;;;;;5127182;27;20477;-69
2023/10/30 05:54:24;;;;;;;1.57;1.20;;;12.80;1.00;;;;;;5127471;27;20572;-68
2023/10/30 05:56:51;;;;;;;3.43;1.50;;;12.80;1.00;;;;;;5130095;27;20447;-68
2023/10/30 05:59:18;;;;;;;3.60;1.77;;;12.80;1.00;;;;;;5131316;27;20454;-70
2023/10/30 06:01:47;;;;;;;2.00;1.53;;;12.80;1.00;;;;;;5122939;27;20551;-67
2023/10/30 06:04:14;;;;;;;4.00;1.63;;;12.80;1.00;;;;;;5126500;27;20955;-70
2023/10/30 06:06:41;;;;;;;4.07;1.60;;;12.80;1.00;;;;;;5130011;27;20546;-70
2023/10/30 06:09:09;;;;;;;6.00;1.50;;;12.80;1.00;;;;;;5127460;27;20490;-69
2023/10/30 06:11:36;;;;;;;2.40;1.10;;;12.80;1.00;;;;;;5123004;27;20543;-69
2023/10/30 06:14:03;;;;;;;2.20;1.37;;;12.70;1.00;;;;;;5126127;27;20523;-69
2023/10/30 06:16:30;;;;;;;3.13;2.70;;;12.70;1.00;;;;;;5127459;27;20545;-69
2023/10/30 06:18:57;;;;;;;3.03;1.43;;;12.70;1.00;;;;;;5129657;27;20547;-71
2023/10/30 06:21:24;;;;;;;5.40;3.87;;;12.80;1.00;;;;;;5146305;27;20418;-69
2023/10/30 06:23:50;;;;;;;2.60;1.80;;;12.80;1.00;;;;;;5132237;27;20556;-68
2023/10/30 06:26:19;;;;;;;2.17;1.73;;;12.70;1.00;;;;;;5129244;27;20943;-68
2023/10/30 06:28:46;;;;;;;2.70;1.50;;;12.70;1.00;;;;;;5128726;27;20490;-70
2023/10/30 06:31:17;;;;;;;5.00;1.77;;;12.70;1.00;;;;;;5127762;27;20461;-68
2023/10/30 06:33:44;;;;;;;4.70;2.17;;;12.80;1.00;;;;;;5131000;27;20972;-67
2023/10/30 06:36:11;;;;;;;3.33;1.20;;;12.80;1.00;;;;;;5129045;27;20547;-69
2023/10/30 06:38:38;;;;;;;3.23;1.17;;;12.80;1.00;;;;;;5132565;27;20545;-68
2023/10/30 06:41:05;;;;;;;3.73;2.03;;;12.90;1.00;;;;;;5127466;27;20456;-69
2023/10/30 06:43:34;;;;;;;3.40;1.37;;;13.00;1.00;;;;;;5129581;27;20469;-70
2023/10/30 06:46:01;;;;;;;4.03;1.60;;;13.00;1.00;;;;;;5130371;27;20431;-69
2023/10/30 06:48:29;;;;;;;1.80;1.50;;;13.00;1.00;;;;;;5135070;27;21010;-72
2023/10/30 06:50:56;;;;;;;3.07;1.00;;;13.00;1.00;;;;;;5134571;27;20528;-71
2023/10/30 06:53:23;;;;;;;3.10;1.30;;;13.00;1.00;;;;;;5145524;27;20459;-69
2023/10/30 06:55:50;;;;;;;3.70;1.03;;;13.10;1.00;;;;;;5143257;27;20447;-69
2023/10/30 06:58:17;;;;;;;2.90;1.30;;;13.10;1.00;;;;;;5148209;27;20444;-69
2023/10/30 07:00:46;;;;;;;1.60;1.40;;;13.20;1.00;;;;;;5136581;27;20529;-70
2023/10/30 07:03:13;;;;;;;3.70;1.83;;;13.30;1.00;;;;;;5152124;27;20561;-74
2023/10/30 07:05:40;;;;;;;3.30;1.60;;;13.40;1.00;;;;;;5155521;27;20919;-73
2023/10/30 07:08:08;;;;;;;1.43;1.33;;;13.40;1.00;;;;;;5136390;27;20491;-73
2023/10/30 07:10:36;;;;;;;2.17;1.43;;;13.50;1.00;;;;;;5132616;27;20460;-73
2023/10/30 07:13:03;;;;;;;3.03;1.50;;;13.60;1.00;;;;;;5132534;27;20476;-72
2023/10/30 07:15:30;;;;;;;3.40;1.80;;;13.60;1.00;;;;;;5145792;27;20466;-73
2023/10/30 07:18:01;;;;;;;2.70;1.37;;;13.70;1.00;;;;;;5153096;27;20558;-74
2023/10/30 07:20:28;;;;;;;2.73;1.50;;;13.80;1.00;;;;;;5142725;27;20939;-73
2023/10/30 07:22:55;;;;;;;2.70;1.50;;;13.90;1.00;;;;;;5135896;27;20475;-73
2023/10/30 07:25:22;;;;;;;3.97;1.60;;;14.00;1.00;;;;;;5135347;27;20893;-73
2023/10/30 07:27:48;;;;;;;2.60;1.63;;;14.20;1.00;;;;;;5134511;27;20454;-73
2023/10/30 07:30:15;;;;;;;2.60;1.40;;;14.30;1.00;;;;;;5137411;27;20459;-73
2023/10/30 07:32:43;;;;;;;3.90;1.47;;;14.40;1.00;;;;;;5155533;27;20490;-72
2023/10/30 07:35:12;;;;;;;2.67;1.60;;;14.50;1.00;;;;;;5136636;27;20452;-73
2023/10/30 07:37:39;;;;;;;4.27;1.80;;;14.70;1.00;;;;;;5148786;27;20479;-72
2023/10/30 07:40:07;;;;;;;2.20;1.43;;;14.80;1.00;;;;;;5135101;27;20448;-73
2023/10/30 07:42:34;;;;;;;5.77;2.10;;;14.80;1.00;;;;;;5136887;27;20466;-73
2023/10/30 07:45:01;;;;;;;3.47;1.27;;;14.80;1.00;;;;;;5153691;27;20975;-73
2023/10/30 07:47:28;;;;;;;5.37;2.10;;;14.80;1.00;;;;;;5139722;27;20594;-73
2023/10/30 07:49:55;;;;;;;4.10;1.60;;;14.80;1.00;;;;;;5133309;27;20470;-73
2023/10/30 07:52:24;;;;;;;3.63;1.50;;;14.80;1.00;;;;;;5143173;27;20541;-73
2023/10/30 07:54:51;;;;;;;5.00;2.63;;;14.90;1.00;;;;;;5134992;27;20553;-72
2023/10/30 07:57:19;;;;;;;4.63;2.07;;;15.00;1.00;;;;;;5134379;27;21052;-72
2023/10/30 07:59:47;;;;;;;4.37;1.30;;;15.10;1.00;;;;;;5154451;27;20447;-73
2023/10/30 08:02:14;;;;;;;4.53;1.97;;;15.10;1.00;;;;;;5151298;27;20472;-73
2023/10/30 08:04:40;;;;;;;4.50;2.47;;;15.30;1.00;;;;;;5137613;27;20450;-72
2023/10/30 08:07:07;;;;;;;2.97;1.27;;;15.40;1.00;;;;;;5136565;27;20610;-74
2023/10/30 08:09:36;;;;;;;3.37;1.50;;;15.60;1.00;;;;;;5146921;27;20483;-74
2023/10/30 08:12:03;;;;;;;3.53;1.30;;;15.80;1.00;;;;;;5130949;27;20460;-69
2023/10/30 08:14:30;;;;;;;4.60;1.77;;;15.90;1.00;;;;;;5144084;27;21031;-68
2023/10/30 08:16:57;;;;;;;5.00;1.93;;;15.80;1.00;;;;;;5128795;27;20536;-71
2023/10/30 08:19:24;;;;;;;4.03;1.70;;;15.80;1.00;;;;;;5131456;27;20463;-70
2023/10/30 08:21:51;;;;;;;2.00;1.30;;;15.90;1.00;;;;;;5129746;27;20507;-69
2023/10/30 08:24:18;;;;;;;4.73;1.50;;;16.00;1.00;;;;;;5130643;27;20794;-69
2023/10/30 08:26:47;;;;;;;2.83;1.50;;;16.10;1.00;;;;;;5132284;27;20457;-71
2023/10/30 08:29:14;;;;;;;3.37;1.30;;;16.00;1.00;;;;;;5132901;27;20483;-68
2023/10/30 08:31:41;;;;;;;4.53;1.70;;;15.90;1.00;;;;;;5132918;27;20467;-71
2023/10/30 08:34:08;;;;;;;4.00;1.60;;;15.80;1.00;;;;;;5132999;27;20883;-70
2023/10/30 08:36:35;;;;;;;5.37;1.50;;;15.70;1.00;;;;;;5135426;27;20788;-69
2023/10/30 08:39:02;;;;;;;7.93;2.00;;;15.70;1.00;;;;;;5143727;27;20448;-69
2023/10/30 08:41:29;;;;;;;3.70;1.60;;;15.70;1.00;;;;;;5142202;27;20509;-68
2023/10/30 08:43:58;;;;;;;1.90;1.23;;;15.60;1.00;;;;;;5134333;27;20888;-69
2023/10/30 08:46:25;;;;;;;3.87;1.20;;;15.70;1.00;;;;;;5133556;27;20598;-70
2023/10/30 08:48:52;;;;;;;8.43;1.83;;;15.80;1.00;;;;;;5135528;27;21207;-71
2023/10/30 08:51:19;;;;;;;4.07;1.50;;;15.80;1.00;;;;;;5143128;27;20456;-68
2023/10/30 08:53:45;;;;;;;5.93;2.43;;;15.90;1.00;;;;;;5149356;27;20460;-68
2023/10/30 08:56:14;;;;;;;7.57;2.20;;;16.00;1.00;;;;;;5144773;27;20529;-69
2023/10/30 08:58:41;;;;;;;4.17;1.60;;;16.00;1.00;;;;;;5146424;27;21001;-69
2023/10/30 09:01:09;;;;;;;4.00;2.00;;;16.20;1.00;;;;;;5143724;27;20484;-70
2023/10/30 09:03:36;;;;;;;5.77;1.73;;;16.20;1.00;;;;;;5134484;27;21215;-68
2023/10/30 09:06:03;;;;;;;4.53;1.90;;;16.20;1.00;;;;;;5144082;27;20499;-68
2023/10/30 09:08:30;;;;;;;3.30;1.63;;;16.30;1.00;;;;;;5133504;27;20473;-69
2023/10/30 09:10:57;;;;;;;4.37;2.00;;;16.40;1.00;;;;;;5133780;27;20588;-69
2023/10/30 09:13:25;;;;;;;4.27;1.60;;;16.60;1.00;;;;;;5138598;27;20448;-68
2023/10/30 09:15:52;;;;;;;3.23;1.60;;;16.70;1.00;;;;;;5143548;27;20451;-70
2023/10/30 09:18:20;;;;;;;5.47;2.20;;;16.80;1.00;;;;;;5151860;27;20441;-69
2023/10/30 09:20:47;;;;;;;4.23;1.50;;;16.90;1.00;;;;;;5133153;27;20546;-69
2023/10/30 09:23:14;;;;;;;2.30;1.30;;;16.90;1.00;;;;;;5145771;27;20538;-73
2023/10/30 09:25:41;;;;;;;3.37;1.37;;;16.90;1.00;;;;;;5146562;27;20479;-74
2023/10/30 09:28:07;;;;;;;4.77;1.93;;;17.00;1.00;;;;;;5139489;27;20556;-73
2023/10/30 09:30:34;;;;;;;2.90;1.30;;;17.10;1.00;;;;;;5155749;27;20994;-72
2023/10/30 09:33:01;;;;;;;4.13;1.80;;;17.20;1.00;;;;;;5146856;27;20426;-72
2023/10/30 09:35:31;;;;;;;4.23;1.77;;;17.20;1.00;;;;;;5150543;27;20486;-71
2023/10/30 09:37:58;;;;;;;6.20;2.53;;;17.20;1.00;;;;;;5141958;27;20468;-72
2023/10/30 09:40:26;;;;;;;2.70;1.50;;;17.30;1.00;;;;;;5139801;27;20469;-73
2023/10/30 09:42:53;;;;;;;3.13;1.63;;;17.10;1.00;;;;;;5131402;27;20456;-73
2023/10/30 09:45:23;;;;;;;4.27;1.63;;;17.10;1.00;;;;;;5133270;27;20540;-73
2023/10/30 09:47:52;;;;;;;3.20;1.50;;;17.00;1.00;;;;;;5150701;27;20812;-74
2023/10/30 09:50:20;;;;;;;4.50;1.77;;;16.90;1.00;;;;;;5144740;27;20469;-71
2023/10/30 09:52:50;;;;;;;3.53;1.60;;;17.10;1.00;;;;;;5145373;27;20552;-74
2023/10/30 09:55:19;;;;;;;2.97;1.47;;;17.20;1.00;;;;;;5149897;27;20907;-72
2023/10/30 09:57:48;;;;;;;6.20;1.60;;;17.20;1.00;;;;;;5146988;27;21051;-73
2023/10/30 10:00:16;;;;;;;3.63;1.70;;;17.30;1.00;;;;;;5142468;27;21415;-73
2023/10/30 10:02:44;;;;;;;4.83;1.57;;;17.30;1.00;;;;;;5134103;27;20449;-73
2023/10/30 10:05:12;;;;;;;5.00;1.50;;;17.30;1.00;;;;;;5134642;27;20858;-73
2023/10/30 10:07:40;;;;;;;5.53;1.77;;;17.60;1.00;;;;;;5150060;27;20441;-74
2023/10/30 10:10:09;;;;;;;4.27;2.20;;;17.90;1.00;;;;;;5143415;27;21000;-74
2023/10/30 10:12:37;;;;;;;3.10;1.40;;;18.20;1.00;;;;;;5145497;27;20455;-75
2023/10/30 10:15:06;;;;;;;3.00;1.60;;;18.20;1.00;;;;;;5140660;27;20457;-75
2023/10/30 10:17:40;;;;;;;5.80;1.73;;;18.30;1.00;;;;;;5147485;27;20516;-73
2023/10/30 10:20:10;;;;;;;2.30;1.40;;;18.30;1.00;;;;;;5131347;27;20476;-73
2023/10/30 10:22:38;;;;;;;4.73;1.90;;;18.40;1.00;;;;;;5132483;27;20550;-73
2023/10/30 10:25:10;;;;;;;7.00;1.53;;;18.40;1.00;;;;;;5118391;27;21046;-73
2023/10/30 10:27:37;;;;;;;5.40;1.80;;;18.40;1.00;;;;;;5130935;27;20497;-74
2023/10/30 10:30:06;;;;;;;3.10;1.70;;;18.30;1.00;;;;;;5145542;27;20475;-72
2023/10/30 10:32:33;;;;;;;2.57;1.43;;;18.00;1.00;;;;;;5153708;27;22416;-71
2023/10/30 10:35:02;;;;;;;4.63;1.90;;;17.90;1.00;;;;;;5152782;27;20951;-72
2023/10/30 10:37:29;;;;;;;5.13;2.07;;;17.90;1.00;;;;;;5147041;27;20460;-72
2023/10/30 10:39:56;;;;;;;2.50;1.40;;;18.00;1.00;;;;;;5133817;27;20472;-73
2023/10/30 10:42:27;;;;;;;3.40;1.50;;;17.90;1.00;;;;;;5133705;27;20553;-74
2023/10/30 10:44:56;;;;;;;6.20;3.40;;;17.80;1.00;;;;;;5149693;27;20456;-73
2023/10/30 10:47:24;;;;;;;5.97;2.17;;;17.80;1.00;;;;;;5150516;27;20525;-74
2023/10/30 10:49:51;;;;;;;3.90;1.73;;;17.80;1.00;;;;;;5136142;27;20489;-73
2023/10/30 10:52:20;;;;;;;1.77;1.20;;;17.80;1.00;;;;;;5131409;27;20512;-76
2023/10/30 10:54:53;;;;;;;5.83;2.43;;;17.80;1.00;;;;;;5131616;27;20880;-73
2023/10/30 10:57:22;;;;;;;4.00;1.67;;;17.60;1.00;;;;;;5131082;27;20442;-73
2023/10/30 10:59:56;;;;;;;3.00;1.30;;;17.30;1.00;;;;;;5132360;27;20472;-74
2023/10/30 11:02:30;;;;;;;7.60;2.17;;;16.90;1.00;;;;;;5139675;27;20472;-74
2023/10/30 11:04:59;;;;;;;3.97;1.43;;;16.70;1.00;;;;;;5131117;27;20841;-73
2023/10/30 11:07:31;;;;;;;3.23;2.00;;;16.60;1.00;;;;;;5135634;27;20551;-73
2023/10/30 11:10:04;;;;;;;3.00;1.57;;;16.50;1.00;;;;;;5132731;27;20467;-73
2023/10/30 11:12:51;;;;;;;5.50;2.10;;;16.40;1.00;;;;;;5129654;27;20457;-74
2023/10/30 11:15:29;;;;;;;4.13;1.50;;;16.70;1.00;;;;;;5129488;27;20469;-73
2023/10/30 11:18:16;;;;;;;2.70;1.30;;;17.20;1.00;;;;;;5130645;27;20456;-74
2023/10/30 11:20:44;;;;;;;4.00;2.60;;;17.60;1.00;;;;;;5144884;27;20460;-75
2023/10/30 11:23:14;;;;;;;4.30;1.90;;;17.80;1.00;;;;;;5149431;27;20540;-75
2023/10/30 11:25:45;;;;;;;3.00;1.70;;;18.00;1.00;;;;;;5132589;27;20492;-73
2023/10/30 11:28:12;;;;;;;3.33;1.53;;;18.50;1.00;;;;;;5128760;27;20456;-73
2023/10/30 11:30:44;;;;;;;2.50;1.23;;;18.90;1.00;;;;;;5146059;27;20553;-76
2023/10/30 11:33:19;;;;;;;6.87;2.80;;;19.50;1.00;;;;;;5151663;27;20558;-74
2023/10/30 11:35:46;;;;;;;4.60;1.50;;;20.00;1.00;;;;;;5152208;27;20546;-74
2023/10/30 11:38:18;;;;;;;4.50;2.10;;;20.00;1.00;;;;;;5149425;27;20525;-72
2023/10/30 11:41:09;;;;;;;4.53;2.10;;;20.10;1.00;;;;;;5131730;27;20496;-74
2023/10/30 11:43:36;;;;;;;3.80;1.50;;;20.20;1.00;;;;;;5131477;27;20555;-69
2023/10/30 11:46:06;;;;;;;6.07;1.60;;;20.70;1.00;;;;;;5130881;27;20544;-68
2023/10/30 11:48:37;;;;;;;1.83;1.50;;;21.00;1.00;;;;;;5152027;27;20541;-69
2023/10/30 11:51:04;;;;;;;3.07;1.23;;;21.50;1.00;;;;;;5135422;27;20470;-70
2023/10/30 11:53:31;;;;;;;2.37;1.27;;;21.50;1.00;;;;;;5131088;27;21720;-69
2023/10/30 11:55:59;;;;;;;3.87;1.57;;;21.00;1.00;;;;;;5131564;27;20544;-72
2023/10/30 11:58:26;;;;;;;5.00;1.80;;;20.30;1.00;;;;;;5128825;27;20558;-70
2023/10/30 12:00:53;;;;;;;5.40;1.43;;;20.00;1.00;;;;;;5131106;27;20564;-69
2023/10/30 12:03:21;;;;;;;5.73;1.67;;;19.80;1.00;;;;;;5140549;27;20504;-71
2023/10/30 12:05:48;;;;;;;4.20;1.57;;;19.10;1.00;;;;;;5145564;27;20553;-72
2023/10/30 12:08:15;;;;;;;4.60;1.57;;;18.90;1.00;;;;;;5133247;27;20496;-69
2023/10/30 12:10:42;;;;;;;4.27;1.50;;;18.80;1.00;;;;;;5142383;27;20551;-71
2023/10/30 12:13:10;;;;;;;3.63;1.50;;;18.50;1.00;;;;;;5143401;27;20479;-69
2023/10/30 12:15:37;;;;;;;2.43;1.63;;;18.20;1.00;;;;;;5144158;27;20903;-70
2023/10/30 12:18:04;;;;;;;7.37;2.03;;;18.10;1.00;;;;;;5149732;27;20474;-71
2023/10/30 12:20:33;;;;;;;1.73;1.30;;;18.10;1.00;;;;;;5153500;27;20482;-71
2023/10/30 12:23:00;;;;;;;4.83;1.40;;;18.10;1.00;;;;;;5150229;27;20586;-70
2023/10/30 12:25:27;;;;;;;4.27;1.60;;;18.10;1.00;;;;;;5151916;27;20548;-70
2023/10/30 12:28:01;;;;;;;2.83;1.40;;;18.00;1.00;;;;;;5153602;27;20541;-71
2023/10/30 12:30:33;;;;;;;5.40;2.10;;;17.80;1.00;;;;;;5143740;27;20483;-70
2023/10/30 12:33:00;;;;;;;2.93;1.43;;;17.80;1.00;;;;;;5126751;27;21054;-69
2023/10/30 12:35:27;;;;;;;5.87;1.50;;;18.20;1.00;;;;;;5127111;27;20584;-68
2023/10/30 12:37:56;;;;;;;2.20;1.50;;;19.00;1.00;;;;;;5128800;27;20535;-68
2023/10/30 12:40:22;;;;;;;3.00;1.20;;;19.40;1.00;;;;;;5131884;27;20509;-70
2023/10/30 12:42:50;;;;;;;1.80;1.50;;;19.40;1.00;;;;;;5130787;27;20540;-68
2023/10/30 12:45:18;;;;;;;6.50;1.73;;;19.30;1.00;;;;;;5139055;27;20515;-69
2023/10/30 12:47:46;;;;;;;3.60;1.40;;;19.10;1.00;;;;;;5144303;27;20459;-70
2023/10/30 12:50:14;;;;;;;6.50;2.20;;;19.00;1.00;;;;;;5135139;27;20597;-69
2023/10/30 12:52:42;;;;;;;3.70;2.00;;;19.50;1.00;;;;;;5126669;27;20447;-74
2023/10/30 12:55:12;;;;;;;3.13;1.17;;;19.70;1.00;;;;;;5130045;27;21030;-74
2023/10/30 12:57:39;;;;;;;4.20;2.83;;;19.50;1.00;;;;;;5133321;27;20456;-74
2023/10/30 13:00:09;;;;;;;3.40;2.20;;;19.40;1.00;;;;;;5132582;27;20488;-73